createdAt,value
2023-04-08T00:00:40.426Z,1.35
2023-04-08T00:01:40.437Z,1.36
2023-04-08T00:02:40.574Z,1.4
2023-04-08T00:03:40.577Z,1.27
2023-04-08T00:04:40.578Z,1.33
2023-04-08T00:05:40.482Z,1.38
2023-04-08T00:06:40.487Z,1.46
2023-04-08T00:07:40.650Z,1.5
2023-04-08T00:08:40.584Z,1.48
2023-04-08T00:09:40.610Z,1.59
2023-04-08T00:10:40.909Z,1.54
2023-04-08T00:11:41.220Z,1.53
2023-04-08T00:12:40.633Z,1.57
2023-04-08T00:13:40.619Z,1.65
2023-04-08T00:14:40.809Z,1.65
2023-04-08T00:15:41.049Z,1.72
2023-04-08T00:16:40.721Z,1.8
2023-04-08T00:17:41.314Z,1.84
2023-04-08T00:18:40.764Z,1.86
2023-04-08T00:19:40.829Z,1.82
2023-04-08T00:20:40.712Z,1.82
2023-04-08T00:21:40.746Z,1.74
2023-04-08T00:22:40.754Z,1.62
2023-04-08T00:23:40.778Z,1.59
2023-04-08T00:24:40.853Z,1.6
2023-04-08T00:25:40.944Z,1.57
2023-04-08T00:26:40.973Z,1.52
2023-04-08T00:27:40.844Z,1.41
2023-04-08T00:28:40.968Z,1.46
2023-04-08T00:29:40.943Z,1.45
2023-04-08T00:30:41.161Z,1.32
2023-04-08T00:31:40.924Z,1.28
2023-04-08T00:32:40.966Z,1.28
2023-04-08T00:33:40.915Z,1.37
2023-04-08T00:34:40.933Z,1.37
2023-04-08T00:35:40.989Z,1.28
2023-04-08T00:36:41.413Z,1.31
2023-04-08T00:37:41.002Z,1.45
2023-04-08T00:38:41.008Z,1.33
2023-04-08T00:39:41.335Z,1.21
2023-04-08T00:40:43.141Z,1.34
2023-04-08T00:41:41.073Z,1.34
2023-04-08T00:42:41.073Z,1.33
2023-04-08T00:43:41.086Z,1.39
2023-04-08T00:44:41.069Z,1.32
2023-04-08T00:45:41.104Z,1.28
2023-04-08T00:46:41.380Z,1.19
2023-04-08T00:47:42.664Z,1.2
2023-04-08T00:48:41.183Z,1.15
2023-04-08T00:49:41.474Z,1.11
2023-04-08T00:50:43.047Z,1.06
2023-04-08T00:51:41.278Z,1.08
2023-04-08T00:52:41.249Z,1.02
2023-04-08T00:53:41.256Z,0.97
2023-04-08T00:54:41.621Z,0.97
2023-04-08T00:55:41.326Z,0.9
2023-04-08T00:56:43.380Z,0.77
2023-04-08T00:57:41.639Z,0.81
2023-04-08T00:58:41.467Z,0.77
2023-04-08T00:59:42.392Z,0.8
2023-04-08T01:00:43.767Z,0.74
2023-04-08T01:02:50.801Z,0.71
2023-04-08T01:03:55.842Z,0.85
2023-04-08T01:07:59.788Z,0.81
2023-04-08T01:08:58.722Z,0.82
2023-04-08T01:09:58.972Z,0.84
2023-04-08T01:10:59.642Z,0.82
2023-04-08T01:11:58.604Z,0.97
2023-04-08T01:12:58.202Z,1.02
2023-04-08T01:13:58.084Z,1.01
2023-04-08T01:15:00.403Z,0.97
2023-04-08T01:15:57.283Z,0.9
2023-04-08T01:16:58.756Z,1.04
2023-04-08T01:17:58.642Z,1.02
2023-04-08T01:18:57.149Z,0.97
2023-04-08T01:19:58.436Z,0.93
2023-04-08T01:20:59.006Z,0.9
2023-04-08T01:22:01.582Z,0.87
2023-04-08T01:25:06.621Z,0.92
2023-04-08T01:26:04.350Z,0.92
2023-04-08T01:27:05.113Z,0.98
2023-04-08T01:28:06.024Z,0.96
2023-04-08T01:29:05.145Z,0.83
2023-04-08T01:30:04.843Z,0.82
2023-04-08T01:31:04.729Z,0.75
2023-04-08T01:32:06.288Z,0.81
2023-04-08T01:33:05.505Z,0.77
2023-04-08T01:34:05.149Z,0.88
2023-04-08T01:35:05.148Z,0.97
2023-04-08T01:36:05.992Z,1.02
2023-04-08T01:37:04.877Z,1.12
2023-04-08T01:38:05.418Z,1.08
2023-04-08T01:39:05.569Z,1.19
2023-04-08T01:40:05.685Z,1.22
2023-04-08T01:41:04.973Z,1.17
2023-04-08T01:42:04.805Z,1.23
2023-04-08T01:43:06.369Z,1.21
2023-04-08T01:44:04.805Z,1.23
2023-04-08T01:45:05.599Z,1.23
2023-04-08T01:46:05.963Z,1.26
2023-04-08T01:47:04.591Z,1.19
2023-04-08T01:48:05.616Z,1.19
2023-04-08T01:49:06.271Z,1.24
2023-04-08T01:50:05.071Z,1.26
2023-04-08T01:51:05.478Z,1.28
2023-04-08T01:52:06.401Z,1.15
2023-04-08T01:53:05.901Z,1.19
2023-04-08T01:54:05.176Z,1.07
2023-04-08T01:55:05.168Z,1
2023-04-08T01:56:06.633Z,1.05
2023-04-08T01:57:05.712Z,1.15
2023-04-08T01:58:05.532Z,1.16
2023-04-08T01:59:08.099Z,1.04
2023-04-08T02:00:09.012Z,1
2023-04-08T02:02:08.797Z,0.91
2023-04-08T02:03:08.097Z,0.92
2023-04-08T02:04:07.588Z,0.83
2023-04-08T02:05:08.327Z,0.92
2023-04-08T02:06:07.484Z,0.94
2023-04-08T02:07:07.860Z,0.82
2023-04-08T02:08:07.518Z,1.01
2023-04-08T02:09:07.545Z,1.12
2023-04-08T02:10:08.142Z,1.1
2023-04-08T02:11:07.568Z,1.04
2023-04-08T02:12:07.918Z,1.05
2023-04-08T02:13:08.110Z,0.97
2023-04-08T02:14:07.636Z,0.87
2023-04-08T02:15:08.691Z,0.87
2023-04-08T02:17:13.278Z,0.73
2023-04-08T02:18:16.845Z,0.77
2023-04-08T02:20:17.624Z,0.74
2023-04-08T02:21:15.415Z,0.68
2023-04-08T02:23:17.360Z,0.58
2023-04-08T02:24:17.397Z,0.54
2023-04-08T02:25:16.384Z,0.48
2023-04-08T02:26:16.556Z,0.46
2023-04-08T02:27:16.515Z,0.36
2023-04-08T02:28:17.550Z,0.26
2023-04-08T02:29:16.074Z,0.21
2023-04-08T02:30:16.467Z,0.14
2023-04-08T02:31:16.939Z,0.21
2023-04-08T02:32:17.134Z,0.18
2023-04-08T02:33:17.899Z,0.2
2023-04-08T02:34:17.637Z,0.21
2023-04-08T02:35:17.325Z,0.18
2023-04-08T02:36:16.956Z,0.21
2023-04-08T02:37:16.529Z,0.22
2023-04-08T02:38:16.541Z,0.21
2023-04-08T02:39:16.819Z,0.18
2023-04-08T02:41:17.935Z,0.1
2023-04-08T02:42:17.965Z,0
2023-04-08T02:43:17.966Z,-0.03
2023-04-08T02:44:18.053Z,-0.06
2023-04-08T02:45:18.253Z,-0.14
2023-04-08T02:46:18.046Z,-0.13
2023-04-08T02:47:18.022Z,-0.06
2023-04-08T02:48:18.096Z,-0.04
2023-04-08T02:49:18.063Z,-0.15
2023-04-08T02:50:18.248Z,-0.2
2023-04-08T02:51:18.080Z,-0.22
2023-04-08T02:52:18.256Z,-0.19
2023-04-08T02:53:18.101Z,-0.26
2023-04-08T02:54:18.192Z,-0.27
2023-04-08T02:55:18.144Z,-0.24
2023-04-08T02:56:18.221Z,-0.11
2023-04-08T02:57:18.214Z,-0.1
2023-04-08T02:58:18.296Z,-0.09
2023-04-08T02:59:18.295Z,-0.03
2023-04-08T03:00:18.308Z,-0.07
2023-04-08T03:01:18.335Z,-0.08
2023-04-08T03:02:18.330Z,-0.08
2023-04-08T03:03:18.361Z,-0.12
2023-04-08T03:04:18.396Z,-0.11
2023-04-08T03:05:18.390Z,-0.09
2023-04-08T03:06:18.455Z,-0.03
2023-04-08T03:07:18.354Z,-0.01
2023-04-08T03:08:18.370Z,0
2023-04-08T03:09:18.427Z,0.05
2023-04-08T03:10:18.464Z,0.05
2023-04-08T03:11:18.416Z,0.09
2023-04-08T03:12:18.446Z,0.09
2023-04-08T03:13:18.485Z,0.09
2023-04-08T03:14:18.520Z,0.05
2023-04-08T03:15:18.652Z,0.15
2023-04-08T03:16:18.549Z,0.16
2023-04-08T03:17:18.699Z,0.12
2023-04-08T03:18:18.569Z,0.07
2023-04-08T03:19:18.577Z,0.04
2023-04-08T03:20:18.620Z,0.09
2023-04-08T03:21:18.629Z,0.03
2023-04-08T03:22:19.016Z,0
2023-04-08T03:23:18.634Z,0.07
2023-04-08T03:24:18.645Z,0.03
2023-04-08T03:25:18.702Z,0.06
2023-04-08T03:26:18.688Z,0.02
2023-04-08T03:27:18.696Z,0.08
2023-04-08T03:28:18.695Z,0.21
2023-04-08T03:29:18.732Z,0.22
2023-04-08T03:30:18.732Z,0.18
2023-04-08T03:31:18.770Z,0.17
2023-04-08T03:32:18.826Z,0.18
2023-04-08T03:33:18.770Z,0.11
2023-04-08T03:34:18.797Z,0.21
2023-04-08T03:35:18.960Z,0.27
2023-04-08T03:36:18.844Z,0.22
2023-04-08T03:37:18.925Z,0.17
2023-04-08T03:38:18.851Z,0.21
2023-04-08T03:39:19.004Z,0.14
2023-04-08T03:40:19.111Z,0.2
2023-04-08T03:41:18.966Z,0.22
2023-04-08T03:42:18.945Z,0.14
2023-04-08T03:43:18.947Z,0.19
2023-04-08T03:44:19.042Z,0.2
2023-04-08T03:45:19.905Z,0.19
2023-04-08T03:46:19.024Z,0.23
2023-04-08T03:47:19.044Z,0.21
2023-04-08T03:48:19.110Z,0.2
2023-04-08T03:49:19.065Z,0.23
2023-04-08T03:50:19.081Z,0.13
2023-04-08T03:51:19.131Z,0.11
2023-04-08T03:52:19.092Z,0.11
2023-04-08T03:53:19.128Z,0.24
2023-04-08T03:54:19.158Z,0.25
2023-04-08T03:55:19.129Z,0.18
2023-04-08T03:56:19.186Z,0.24
2023-04-08T03:57:19.187Z,0.23
2023-04-08T03:58:19.203Z,0.2
2023-04-08T03:59:19.291Z,0.29
2023-04-08T04:00:19.228Z,0.28
2023-04-08T04:01:19.223Z,0.29
2023-04-08T04:02:19.357Z,0.28
2023-04-08T04:03:19.356Z,0.22
2023-04-08T04:04:19.659Z,0.18
2023-04-08T04:05:19.288Z,0.21
2023-04-08T04:06:19.305Z,0.23
2023-04-08T04:07:19.337Z,0.23
2023-04-08T04:08:19.375Z,0.27
2023-04-08T04:09:19.365Z,0.19
2023-04-08T04:10:19.389Z,0.23
2023-04-08T04:11:19.408Z,0.22
2023-04-08T04:12:19.462Z,0.34
2023-04-08T04:13:19.441Z,0.3
2023-04-08T04:14:19.484Z,0.28
2023-04-08T04:15:19.492Z,0.33
2023-04-08T04:16:19.561Z,0.32
2023-04-08T04:17:19.515Z,0.34
2023-04-08T04:18:19.528Z,0.38
2023-04-08T04:19:19.510Z,0.35
2023-04-08T04:20:19.567Z,0.41
2023-04-08T04:21:19.561Z,0.4
2023-04-08T04:22:19.702Z,0.4
2023-04-08T04:23:19.607Z,0.4
2023-04-08T04:24:19.592Z,0.44
2023-04-08T04:25:19.829Z,0.48
2023-04-08T04:26:19.622Z,0.61
2023-04-08T04:27:19.708Z,0.6
2023-04-08T04:28:19.686Z,0.65
2023-04-08T04:29:19.672Z,0.77
2023-04-08T04:30:19.695Z,0.74
2023-04-08T04:31:20.417Z,0.8
2023-04-08T04:32:19.752Z,0.83
2023-04-08T04:33:19.761Z,0.73
2023-04-08T04:34:19.772Z,0.89
2023-04-08T04:35:19.898Z,0.91
2023-04-08T04:36:19.868Z,0.97
2023-04-08T04:37:19.810Z,0.99
2023-04-08T04:38:19.835Z,1.03
2023-04-08T04:39:19.862Z,0.99
2023-04-08T04:40:19.896Z,0.98
2023-04-08T04:41:19.884Z,0.96
2023-04-08T04:42:19.920Z,0.93
2023-04-08T04:43:19.921Z,0.88
2023-04-08T04:44:19.985Z,0.87
2023-04-08T04:45:19.949Z,0.93
2023-04-08T04:46:20.032Z,0.99
2023-04-08T04:47:19.994Z,1
2023-04-08T04:48:20.106Z,1
2023-04-08T04:49:20.158Z,1.16
2023-04-08T04:50:20.047Z,1.16
2023-04-08T04:51:20.074Z,1.2
2023-04-08T04:52:20.040Z,1.22
2023-04-08T04:53:20.068Z,1.24
2023-04-08T04:54:20.150Z,1.24
2023-04-08T04:55:20.313Z,1.26
2023-04-08T04:56:20.122Z,1.22
2023-04-08T04:57:20.128Z,1.3
2023-04-08T04:58:20.133Z,1.33
2023-04-08T04:59:20.208Z,1.36
2023-04-08T05:00:20.194Z,1.33
2023-04-08T05:01:20.253Z,1.35
2023-04-08T05:02:20.343Z,1.36
2023-04-08T05:03:20.249Z,1.36
2023-04-08T05:04:20.274Z,1.36
2023-04-08T05:05:20.338Z,1.46
2023-04-08T05:06:20.343Z,1.52
2023-04-08T05:07:20.307Z,1.57
2023-04-08T05:08:20.850Z,1.6
2023-04-08T05:09:20.365Z,1.65
2023-04-08T05:10:20.566Z,1.66
2023-04-08T05:11:20.527Z,1.63
2023-04-08T05:12:20.404Z,1.63
2023-04-08T05:13:20.423Z,1.63
2023-04-08T05:14:20.456Z,1.64
2023-04-08T05:15:20.506Z,1.61
2023-04-08T05:16:20.458Z,1.63
2023-04-08T05:17:20.466Z,1.64
2023-04-08T05:18:20.513Z,1.64
2023-04-08T05:19:20.562Z,1.7
2023-04-08T05:20:21.171Z,1.67
2023-04-08T05:21:20.532Z,1.73
2023-04-08T05:22:20.525Z,1.74
2023-04-08T05:23:20.553Z,1.77
2023-04-08T05:24:20.574Z,1.83
2023-04-08T05:25:20.600Z,1.86
2023-04-08T05:26:20.666Z,1.84
2023-04-08T05:27:20.644Z,1.93
2023-04-08T05:28:20.671Z,1.91
2023-04-08T05:29:20.648Z,1.92
2023-04-08T05:30:20.885Z,1.94
2023-04-08T05:31:20.763Z,1.96
2023-04-08T05:32:20.833Z,2.02
2023-04-08T05:33:20.741Z,2.06
2023-04-08T05:34:20.778Z,2.11
2023-04-08T05:35:20.836Z,2.15
2023-04-08T05:36:20.790Z,2.2
2023-04-08T05:37:20.814Z,2.24
2023-04-08T05:38:20.817Z,2.28
2023-04-08T05:39:20.879Z,2.34
2023-04-08T05:40:20.870Z,2.38
2023-04-08T05:41:20.877Z,2.45
2023-04-08T05:42:20.911Z,2.51
2023-04-08T05:43:20.917Z,2.58
2023-04-08T05:44:20.933Z,2.65
2023-04-08T05:45:20.937Z,2.76
2023-04-08T05:46:21.017Z,2.82
2023-04-08T05:47:21.050Z,2.89
2023-04-08T05:48:21.260Z,3.04
2023-04-08T05:49:21.362Z,3.12
2023-04-08T05:50:21.020Z,3.25
2023-04-08T05:51:21.047Z,3.28
2023-04-08T05:52:21.128Z,3.42
2023-04-08T05:53:21.650Z,3.47
2023-04-08T05:54:21.691Z,3.55
2023-04-08T05:55:21.898Z,3.68
2023-04-08T05:56:21.697Z,3.8
2023-04-08T05:57:21.756Z,3.84
2023-04-08T05:58:21.741Z,3.91
2023-04-08T05:59:21.747Z,3.88
2023-04-08T06:00:22.012Z,3.88
2023-04-08T06:01:21.809Z,3.92
2023-04-08T06:02:21.913Z,4
2023-04-08T06:03:22.264Z,4.05
2023-04-08T06:04:21.953Z,4.12
2023-04-08T06:05:21.869Z,4.18
2023-04-08T06:06:22.320Z,4.27
2023-04-08T06:07:21.867Z,4.33
2023-04-08T06:08:21.860Z,4.42
2023-04-08T06:09:21.894Z,4.57
2023-04-08T06:10:21.898Z,4.61
2023-04-08T06:11:21.925Z,4.74
2023-04-08T06:12:21.930Z,4.84
2023-04-08T06:13:21.965Z,4.97
2023-04-08T06:14:21.928Z,5
2023-04-08T06:15:21.958Z,5.1
2023-04-08T06:16:22.008Z,5.12
2023-04-08T06:17:22.130Z,5.23
2023-04-08T06:18:22.021Z,5.33
2023-04-08T06:19:22.056Z,5.46
2023-04-08T06:20:22.136Z,5.56
2023-04-08T06:21:22.166Z,5.62
2023-04-08T06:22:22.079Z,5.8
2023-04-08T06:23:22.260Z,5.77
2023-04-08T06:24:22.087Z,5.89
2023-04-08T06:25:22.124Z,5.91
2023-04-08T06:26:22.163Z,6
2023-04-08T06:27:22.154Z,6.12
2023-04-08T06:28:22.205Z,6.26
2023-04-08T06:29:22.419Z,6.25
2023-04-08T06:30:22.422Z,6.23
2023-04-08T06:31:22.214Z,6.34
2023-04-08T06:32:22.333Z,6.51
2023-04-08T06:33:22.230Z,6.53
2023-04-08T06:34:22.253Z,6.44
2023-04-08T06:35:22.263Z,6.63
2023-04-08T06:36:22.228Z,6.64
2023-04-08T06:37:22.260Z,6.7
2023-04-08T06:38:22.306Z,6.65
2023-04-08T06:39:22.274Z,6.77
2023-04-08T06:40:22.290Z,6.85
2023-04-08T06:41:22.326Z,6.95
2023-04-08T06:42:23.181Z,7.19
2023-04-08T06:43:22.372Z,7.19
2023-04-08T06:44:22.384Z,7.23
2023-04-08T06:45:22.607Z,7.08
2023-04-08T06:46:22.460Z,7.32
2023-04-08T06:47:22.441Z,7.39
2023-04-08T06:48:22.612Z,7.31
2023-04-08T06:49:22.468Z,7.44
2023-04-08T06:50:22.562Z,7.54
2023-04-08T06:51:22.457Z,7.56
2023-04-08T06:52:22.490Z,7.48
2023-04-08T06:53:23.309Z,7.5
2023-04-08T06:54:22.477Z,7.5
2023-04-08T06:55:22.524Z,7.67
2023-04-08T06:56:22.517Z,7.71
2023-04-08T06:57:22.546Z,7.67
2023-04-08T06:58:22.540Z,7.82
2023-04-08T06:59:22.631Z,7.86
2023-04-08T07:00:22.579Z,7.93
2023-04-08T07:01:22.656Z,7.81
2023-04-08T07:02:22.723Z,7.84
2023-04-08T07:03:23.361Z,7.8
2023-04-08T07:04:22.722Z,7.9
2023-04-08T07:05:22.647Z,7.94
2023-04-08T07:06:22.674Z,7.87
2023-04-08T07:07:22.640Z,7.78
2023-04-08T07:08:22.704Z,7.85
2023-04-08T07:09:22.699Z,7.82
2023-04-08T07:10:22.719Z,7.94
2023-04-08T07:11:22.733Z,8.03
2023-04-08T07:12:22.727Z,8.26
2023-04-08T07:13:22.776Z,8.09
2023-04-08T07:14:22.786Z,8.27
2023-04-08T07:15:22.782Z,8.37
2023-04-08T07:16:22.836Z,8.25
2023-04-08T07:17:22.865Z,8.34
2023-04-08T07:18:22.821Z,8.47
2023-04-08T07:19:22.829Z,8.6
2023-04-08T07:20:23.417Z,8.6
2023-04-08T07:21:22.881Z,8.65
2023-04-08T07:22:23.039Z,8.64
2023-04-08T07:23:23.131Z,8.7
2023-04-08T07:24:22.940Z,8.91
2023-04-08T07:25:22.941Z,8.89
2023-04-08T07:26:22.949Z,8.83
2023-04-08T07:27:22.990Z,8.89
2023-04-08T07:28:22.944Z,8.81
2023-04-08T07:29:23.468Z,8.87
2023-04-08T07:30:23.481Z,9.12
2023-04-08T07:31:23.662Z,9.33
2023-04-08T07:32:23.605Z,9.2
2023-04-08T07:33:23.486Z,8.97
2023-04-08T07:34:23.512Z,9.14
2023-04-08T07:35:23.779Z,9.16
2023-04-08T07:36:23.584Z,9.29
2023-04-08T07:37:23.589Z,9.33
2023-04-08T07:38:24.215Z,9.29
2023-04-08T07:39:23.735Z,9.43
2023-04-08T07:40:23.796Z,9.65
2023-04-08T07:41:23.619Z,9.58
2023-04-08T07:42:23.645Z,9.55
2023-04-08T07:43:23.639Z,9.5
2023-04-08T07:44:23.670Z,9.41
2023-04-08T07:45:23.680Z,9.56
2023-04-08T07:46:23.776Z,9.38
2023-04-08T07:47:23.685Z,9.39
2023-04-08T07:48:23.892Z,9.53
2023-04-08T07:49:23.709Z,9.64
2023-04-08T07:50:23.769Z,9.57
2023-04-08T07:51:23.796Z,9.89
2023-04-08T07:52:23.776Z,9.76
2023-04-08T07:53:24.003Z,9.83
2023-04-08T07:54:23.784Z,9.93
2023-04-08T07:55:23.772Z,10.01
2023-04-08T07:56:23.799Z,10.3
2023-04-08T07:57:23.884Z,10.15
2023-04-08T07:58:23.804Z,10.09
2023-04-08T07:59:23.829Z,10.07
2023-04-08T08:00:23.881Z,9.92
2023-04-08T08:01:23.873Z,9.95
2023-04-08T08:02:24.056Z,9.87
2023-04-08T08:03:24.085Z,10.14
2023-04-08T08:04:24.086Z,10
2023-04-08T08:05:24.019Z,10.09
2023-04-08T08:06:23.932Z,10.43
2023-04-08T08:07:23.989Z,10.25
2023-04-08T08:08:24.104Z,10.33
2023-04-08T08:09:24.001Z,10.36
2023-04-08T08:10:24.025Z,10.49
2023-04-08T08:11:24.016Z,10.67
2023-04-08T08:12:24.052Z,10.36
2023-04-08T08:13:24.063Z,10.51
2023-04-08T08:14:24.033Z,10.53
2023-04-08T08:15:24.069Z,11.01
2023-04-08T08:16:24.082Z,10.87
2023-04-08T08:17:25.384Z,10.47
2023-04-08T08:18:24.282Z,10.42
2023-04-08T08:19:24.097Z,10.98
2023-04-08T08:20:24.127Z,10.8
2023-04-08T08:21:24.164Z,10.48
2023-04-08T08:22:24.158Z,10.54
2023-04-08T08:23:24.193Z,10.49
2023-04-08T08:24:24.177Z,10.66
2023-04-08T08:25:26.096Z,10.8
2023-04-08T08:26:24.204Z,10.73
2023-04-08T08:27:24.229Z,10.63
2023-04-08T08:28:24.275Z,11
2023-04-08T08:29:24.911Z,10.87
2023-04-08T08:30:24.467Z,10.76
2023-04-08T08:31:24.314Z,10.69
2023-04-08T08:32:24.287Z,10.99
2023-04-08T08:33:24.710Z,11.18
2023-04-08T08:34:24.314Z,10.79
2023-04-08T08:35:24.551Z,10.55
2023-04-08T08:36:24.349Z,10.66
2023-04-08T08:37:24.388Z,10.94
2023-04-08T08:38:24.728Z,11.12
2023-04-08T08:39:24.387Z,11.37
2023-04-08T08:40:24.430Z,11.43
2023-04-08T08:41:24.392Z,11.46
2023-04-08T08:42:24.927Z,11.5
2023-04-08T08:43:25.035Z,11.76
2023-04-08T08:44:24.609Z,11.57
2023-04-08T08:45:24.475Z,11.23
2023-04-08T08:46:24.603Z,10.84
2023-04-08T08:47:24.779Z,10.67
2023-04-08T08:48:24.686Z,11.01
2023-04-08T08:49:24.570Z,11.13
2023-04-08T08:50:24.662Z,11.11
2023-04-08T08:51:24.887Z,11.19
2023-04-08T08:52:24.558Z,11.48
2023-04-08T08:53:31.368Z,11.62
2023-04-08T08:54:29.226Z,10.99
2023-04-08T08:55:53.217Z,10.62
2023-04-08T08:56:33.833Z,10.78
2023-04-08T08:57:33.738Z,11.14
2023-04-08T08:58:33.738Z,11.46
2023-04-08T08:59:33.835Z,11.7
2023-04-08T09:00:38.278Z,11.71
2023-04-08T09:01:35.928Z,11.38
2023-04-08T09:02:34.730Z,11.25
2023-04-08T09:03:34.718Z,11.37
2023-04-08T09:04:34.698Z,11.4
2023-04-08T09:06:38.550Z,11.7
2023-04-08T09:07:38.640Z,11.72
2023-04-08T09:08:38.340Z,11.33
2023-04-08T09:10:42.015Z,10.9
2023-04-08T09:11:46.068Z,11.03
2023-04-08T09:13:44.307Z,11.25
2023-04-08T09:14:43.510Z,11.38
2023-04-08T09:16:44.802Z,12.15
2023-04-08T09:17:44.435Z,12.17
2023-04-08T09:18:45.118Z,11.85
2023-04-08T09:21:45.401Z,11.71
2023-04-08T09:23:51.633Z,12.04
2023-04-08T09:24:48.688Z,11.67
2023-04-08T09:25:48.772Z,11.31
2023-04-08T09:26:48.746Z,11.31
2023-04-08T09:27:48.722Z,11.75
2023-04-08T09:29:08.184Z,11.94
2023-04-08T09:29:50.922Z,11.94
2023-04-08T09:30:50.938Z,11.97
2023-04-08T09:31:57.226Z,11.56
2023-04-08T09:32:54.637Z,11.87
2023-04-08T09:34:00.626Z,11.81
2023-04-08T09:34:57.362Z,11.99
2023-04-08T09:35:56.923Z,11.68
2023-04-08T09:36:57.045Z,11.57
2023-04-08T09:37:56.960Z,11.61
2023-04-08T09:38:57.054Z,11.95
2023-04-08T09:39:56.885Z,12.1
2023-04-08T09:40:57.063Z,12.15
2023-04-08T09:41:58.290Z,12.2
2023-04-08T09:42:58.025Z,12
2023-04-08T09:43:58.321Z,11.85
2023-04-08T09:44:57.759Z,11.85
2023-04-08T09:45:58.303Z,11.96
2023-04-08T09:48:06.831Z,12.05
2023-04-08T09:49:07.472Z,11.6
2023-04-08T09:50:06.553Z,11.77
2023-04-08T09:51:04.708Z,12.05
2023-04-08T09:52:08.314Z,12.14
2023-04-08T09:53:13.998Z,12.21
2023-04-08T09:54:10.596Z,12.04
2023-04-08T09:55:12.320Z,11.58
2023-04-08T09:56:11.703Z,11.53
2023-04-08T09:57:22.138Z,11.43
2023-04-08T09:58:18.960Z,11.31
2023-04-08T09:59:17.369Z,11.51
2023-04-08T10:00:17.192Z,11.56
2023-04-08T10:01:16.902Z,11.67
2023-04-08T10:02:17.206Z,11.81
2023-04-08T10:03:30.213Z,11.91
2023-04-08T10:04:18.761Z,11.92
2023-04-08T10:05:17.629Z,11.94
2023-04-08T10:06:17.097Z,11.83
2023-04-08T10:07:17.424Z,11.89
2023-04-08T10:08:17.239Z,12.1
2023-04-08T10:09:17.351Z,11.74
2023-04-08T10:10:17.696Z,11.76
2023-04-08T10:11:17.134Z,12.1
2023-04-08T10:12:17.288Z,12.12
2023-04-08T10:13:17.372Z,12.03
2023-04-08T10:14:17.182Z,11.9
2023-04-08T10:15:27.203Z,11.82
2023-04-08T10:16:22.422Z,11.87
2023-04-08T10:17:28.009Z,11.87
2023-04-08T10:24:34.514Z,11.89
2023-04-08T10:25:38.290Z,11.94
2023-04-08T10:26:38.870Z,11.98
2023-04-08T10:27:39.587Z,12.2
2023-04-08T10:28:36.287Z,12.15
2023-04-08T10:29:36.260Z,12.7
2023-04-08T10:30:39.493Z,12.69
2023-04-08T10:31:40.146Z,12.45
2023-04-08T10:32:40.549Z,12.41
2023-04-08T10:33:40.879Z,12.49
2023-04-08T10:34:50.818Z,12.63
2023-04-08T10:35:43.955Z,12.45
2023-04-08T10:36:42.501Z,12.39
2023-04-08T10:37:42.704Z,12.24
2023-04-08T10:38:42.676Z,12.31
2023-04-08T10:39:48.476Z,12.27
2023-04-08T10:40:45.485Z,11.95
2023-04-08T10:41:49.058Z,11.96
2023-04-08T10:42:45.741Z,11.97
2023-04-08T10:43:46.862Z,11.91
2023-04-08T10:44:45.741Z,12.27
2023-04-08T10:45:48.617Z,12.39
2023-04-08T10:46:46.260Z,12.63
2023-04-08T10:47:45.864Z,12.78
2023-04-08T10:48:59.116Z,12.68
2023-04-08T10:49:50.870Z,12.64
2023-04-08T10:50:57.663Z,12.53
2023-04-08T10:51:54.384Z,12.72
2023-04-08T10:52:54.420Z,12.9
2023-04-08T10:53:54.536Z,12.76
2023-04-08T10:54:54.507Z,12.54
2023-04-08T10:55:55.044Z,12.69
2023-04-08T10:56:54.813Z,12.7
2023-04-08T10:57:55.848Z,12.78
2023-04-08T10:58:55.243Z,12.63
2023-04-08T10:59:54.508Z,12.75
2023-04-08T11:00:54.537Z,12.97
2023-04-08T11:01:54.688Z,12.72
2023-04-08T11:02:54.702Z,12.72
2023-04-08T11:03:54.926Z,12.6
2023-04-08T11:04:54.582Z,12.29
2023-04-08T11:05:57.541Z,12.37
2023-04-08T11:06:54.661Z,12.95
2023-04-08T11:07:54.603Z,12.94
2023-04-08T11:08:57.262Z,13.04
2023-04-08T11:09:54.811Z,13.32
2023-04-08T11:10:54.707Z,13.32
2023-04-08T11:11:54.749Z,13.43
2023-04-08T11:12:55.127Z,13.08
2023-04-08T11:13:56.615Z,13.03
2023-04-08T11:14:54.775Z,12.91
2023-04-08T11:16:00.745Z,12.9
2023-04-08T11:16:57.681Z,12.9
2023-04-08T11:17:57.908Z,12.92
2023-04-08T11:18:57.954Z,12.84
2023-04-08T11:19:57.940Z,12.79
2023-04-08T11:21:00.083Z,12.91
2023-04-08T11:21:58.427Z,12.94
2023-04-08T11:22:57.643Z,12.84
2023-04-08T11:23:57.717Z,12.72
2023-04-08T11:24:58.205Z,12.62
2023-04-08T11:25:57.825Z,12.67
2023-04-08T11:26:57.882Z,12.66
2023-04-08T11:27:57.914Z,12.66
2023-04-08T11:28:57.891Z,12.67
2023-04-08T11:29:58.443Z,12.53
2023-04-08T11:30:58.081Z,12.59
2023-04-08T11:31:57.955Z,12.77
2023-04-08T11:32:58.190Z,13.12
2023-04-08T11:33:57.808Z,12.88
2023-04-08T11:35:01.334Z,12.86
2023-04-08T11:35:58.112Z,12.74
2023-04-08T11:36:58.051Z,12.82
2023-04-08T11:37:58.267Z,12.76
2023-04-08T11:38:58.090Z,12.82
2023-04-08T11:39:58.184Z,12.8
2023-04-08T11:40:58.996Z,13.01
2023-04-08T11:41:58.162Z,12.86
2023-04-08T11:42:58.223Z,12.94
2023-04-08T11:43:58.158Z,13.01
2023-04-08T11:44:58.658Z,13.16
2023-04-08T11:45:58.348Z,12.86
2023-04-08T11:46:58.228Z,13.04
2023-04-08T11:47:58.471Z,13.06
2023-04-08T11:49:02.794Z,13.07
2023-04-08T11:50:00.011Z,13.2
2023-04-08T11:51:02.958Z,13.26
2023-04-08T11:51:59.885Z,13.22
2023-04-08T11:52:59.764Z,13.36
2023-04-08T11:53:59.931Z,13.65
2023-04-08T11:54:59.701Z,13.66
2023-04-08T11:57:01.940Z,13.51
2023-04-08T11:58:03.156Z,13.48
2023-04-08T11:59:01.876Z,13.34
2023-04-08T12:00:01.932Z,13.46
2023-04-08T12:01:01.946Z,13.56
2023-04-08T12:02:02.674Z,13.51
2023-04-08T12:03:02.089Z,13.46
2023-04-08T12:04:02.187Z,13.16
2023-04-08T12:05:02.108Z,13.15
2023-04-08T12:06:02.032Z,13.28
2023-04-08T12:07:02.044Z,13.47
2023-04-08T12:08:02.067Z,13.4
2023-04-08T12:09:02.112Z,13.27
2023-04-08T12:10:02.060Z,13.29
2023-04-08T12:11:16.629Z,13.39
2023-04-08T12:12:05.733Z,13.46
2023-04-08T12:13:05.747Z,13.37
2023-04-08T12:14:05.795Z,13.32
2023-04-08T12:15:06.728Z,13.28
2023-04-08T12:16:06.132Z,13.33
2023-04-08T12:17:05.821Z,13.31
2023-04-08T12:18:05.892Z,13.35
2023-04-08T12:19:05.832Z,13.45
2023-04-08T12:20:06.699Z,13.39
2023-04-08T12:21:05.927Z,13.52
2023-04-08T12:22:05.895Z,13.13
2023-04-08T12:23:05.888Z,13.23
2023-04-08T12:24:05.945Z,13.41
2023-04-08T12:25:06.187Z,13.62
2023-04-08T12:26:06.065Z,14.01
2023-04-08T12:27:05.956Z,14.25
2023-04-08T12:28:05.968Z,13.81
2023-04-08T12:29:06.057Z,13.64
2023-04-08T12:30:06.499Z,13.84
2023-04-08T12:31:06.078Z,13.84
2023-04-08T12:32:06.113Z,13.68
2023-04-08T12:33:06.092Z,13.8
2023-04-08T12:34:06.170Z,13.68
2023-04-08T12:35:06.260Z,13.64
2023-04-08T12:36:06.299Z,13.56
2023-04-08T12:37:06.208Z,13.5
2023-04-08T12:38:06.135Z,13.67
2023-04-08T12:39:06.182Z,13.87
2023-04-08T12:40:06.917Z,13.88
2023-04-08T12:41:06.217Z,13.89
2023-04-08T12:42:06.241Z,13.57
2023-04-08T12:43:06.235Z,13.57
2023-04-08T12:44:06.258Z,13.7
2023-04-08T12:45:06.777Z,13.59
2023-04-08T12:46:06.307Z,13.51
2023-04-08T12:47:06.518Z,13.7
2023-04-08T12:48:06.356Z,13.79
2023-04-08T12:49:06.728Z,13.66
2023-04-08T12:50:07.009Z,13.6
2023-04-08T12:51:06.391Z,13.69
2023-04-08T12:52:06.380Z,13.47
2023-04-08T12:53:06.588Z,13.63
2023-04-08T12:54:06.450Z,13.67
2023-04-08T12:55:06.931Z,13.62
2023-04-08T12:56:06.799Z,13.34
2023-04-08T12:57:06.493Z,13.41
2023-04-08T12:58:06.578Z,13.45
2023-04-08T12:59:06.489Z,13.43
2023-04-08T13:00:07.188Z,13.46
2023-04-08T13:01:06.611Z,13.47
2023-04-08T13:02:06.878Z,13.45
2023-04-08T13:03:06.773Z,13.18
2023-04-08T13:04:07.206Z,13.46
2023-04-08T13:05:06.764Z,13.43
2023-04-08T13:06:06.652Z,13.26
2023-04-08T13:07:06.614Z,13.32
2023-04-08T13:08:06.650Z,13.38
2023-04-08T13:09:06.704Z,13.33
2023-04-08T13:10:07.606Z,13.36
2023-04-08T13:11:07.544Z,13.22
2023-04-08T13:12:06.749Z,13.26
2023-04-08T13:13:06.690Z,13.28
2023-04-08T13:14:06.768Z,13.32
2023-04-08T13:15:07.462Z,13.32
2023-04-08T13:16:06.907Z,13.38
2023-04-08T13:17:07.016Z,13.3
2023-04-08T13:18:06.841Z,13.38
2023-04-08T13:19:06.848Z,13.37
2023-04-08T13:20:07.606Z,13.42
2023-04-08T13:21:07.226Z,13.53
2023-04-08T13:22:07.050Z,13.4
2023-04-08T13:23:06.881Z,13.36
2023-04-08T13:24:06.911Z,13.38
2023-04-08T13:25:07.216Z,13.33
2023-04-08T13:26:06.964Z,13.32
2023-04-08T13:27:07.081Z,13.34
2023-04-08T13:28:06.959Z,13.38
2023-04-08T13:29:06.999Z,13.48
2023-04-08T13:30:07.657Z,13.46
2023-04-08T13:31:07.036Z,13.36
2023-04-08T13:32:07.142Z,13.37
2023-04-08T13:33:07.135Z,13.44
2023-04-08T13:34:07.115Z,13.34
2023-04-08T13:35:07.578Z,13.17
2023-04-08T13:36:07.245Z,13.23
2023-04-08T13:37:07.174Z,13.24
2023-04-08T13:38:07.098Z,13.22
2023-04-08T13:39:07.136Z,13.23